Algoma, Wisconsin
Current Conditions -  °F | °C
As of 6:55 AM on Friday 24 Oct 2014 (Local Time) from KSUE Reporting Station
Overcast Overcast  
Wind Chill:   Ceiling: 1000
Heat Index:   Visibility: 5mi
Dew Point:   Wind: 6mph
Humidity: 87%   Direction: 250°WSW
Pressure: 30.02"   Gusts: NA
Location:  44.61°N, 87.43°W
Report Text: KSUE 241155Z AUTO 25005KT 5SM OVC010 09/07 A3002 RMK AO1 10090 20090 52003
Loading
Personal Weather Stations






























Interactive Weather Map
Tropical Storm Tracking
New forecast layout! Learn more

10-Day Weather Forecast

Advertisements
Track Severe Weather on mobile